sensor_id;sensor_type;location;lat;lon;timestamp;P1;durP1;ratioP1;P2;durP2;ratioP2
36291;SDS011;22327;51.208;6.418;2023-04-03T00:01:08;7.03;;;3.70;;
36291;SDS011;22327;51.208;6.418;2023-04-03T00:03:34;5.03;;;3.92;;
36291;SDS011;22327;51.208;6.418;2023-04-03T00:06:00;5.07;;;4.20;;
36291;SDS011;22327;51.208;6.418;2023-04-03T00:08:26;5.38;;;3.70;;
36291;SDS011;22327;51.208;6.418;2023-04-03T00:10:51;6.72;;;4.18;;
36291;SDS011;22327;51.208;6.418;2023-04-03T00:13:17;4.35;;;3.63;;
36291;SDS011;22327;51.208;6.418;2023-04-03T00:15:43;7.18;;;3.92;;
36291;SDS011;22327;51.208;6.418;2023-04-03T00:18:08;6.70;;;4.15;;
36291;SDS011;22327;51.208;6.418;2023-04-03T00:20:34;6.57;;;4.68;;
36291;SDS011;22327;51.208;6.418;2023-04-03T00:23:00;5.40;;;4.40;;
36291;SDS011;22327;51.208;6.418;2023-04-03T00:25:26;5.95;;;4.18;;
36291;SDS011;22327;51.208;6.418;2023-04-03T00:27:52;6.03;;;3.92;;
36291;SDS011;22327;51.208;6.418;2023-04-03T00:30:19;4.43;;;3.85;;
36291;SDS011;22327;51.208;6.418;2023-04-03T00:32:47;11.02;;;8.88;;
36291;SDS011;22327;51.208;6.418;2023-04-03T00:35:13;8.60;;;5.00;;
36291;SDS011;22327;51.208;6.418;2023-04-03T00:37:41;5.55;;;4.65;;
36291;SDS011;22327;51.208;6.418;2023-04-03T00:40:07;6.93;;;4.75;;
36291;SDS011;22327;51.208;6.418;2023-04-03T00:42:33;8.90;;;4.35;;
36291;SDS011;22327;51.208;6.418;2023-04-03T00:47:26;6.50;;;4.70;;
36291;SDS011;22327;51.208;6.418;2023-04-03T00:49:52;7.13;;;4.70;;
36291;SDS011;22327;51.208;6.418;2023-04-03T00:52:19;7.63;;;4.75;;
36291;SDS011;22327;51.208;6.418;2023-04-03T00:54:49;6.53;;;4.78;;
36291;SDS011;22327;51.208;6.418;2023-04-03T00:57:16;6.18;;;4.13;;
36291;SDS011;22327;51.208;6.418;2023-04-03T00:59:43;6.40;;;4.88;;
36291;SDS011;22327;51.208;6.418;2023-04-03T01:02:13;5.43;;;4.93;;
36291;SDS011;22327;51.208;6.418;2023-04-03T01:04:40;8.10;;;4.45;;
36291;SDS011;22327;51.208;6.418;2023-04-03T01:09:37;7.13;;;4.65;;
36291;SDS011;22327;51.208;6.418;2023-04-03T01:15:04;7.15;;;4.53;;
36291;SDS011;22327;51.208;6.418;2023-04-03T01:17:36;5.28;;;4.40;;
36291;SDS011;22327;51.208;6.418;2023-04-03T01:25:36;7.35;;;4.63;;
36291;SDS011;22327;51.208;6.418;2023-04-03T01:28:05;6.13;;;4.40;;
36291;SDS011;22327;51.208;6.418;2023-04-03T01:30:34;5.47;;;4.50;;
36291;SDS011;22327;51.208;6.418;2023-04-03T01:33:04;6.45;;;5.18;;
36291;SDS011;22327;51.208;6.418;2023-04-03T01:35:30;5.82;;;4.40;;
36291;SDS011;22327;51.208;6.418;2023-04-03T01:37:55;6.72;;;5.13;;
36291;SDS011;22327;51.208;6.418;2023-04-03T01:40:21;6.85;;;5.03;;
36291;SDS011;22327;51.208;6.418;2023-04-03T01:42:46;8.43;;;5.50;;
36291;SDS011;22327;51.208;6.418;2023-04-03T01:45:12;6.72;;;5.60;;
36291;SDS011;22327;51.208;6.418;2023-04-03T01:47:37;8.30;;;5.53;;
36291;SDS011;22327;51.208;6.418;2023-04-03T01:50:03;9.27;;;5.75;;
36291;SDS011;22327;51.208;6.418;2023-04-03T01:52:29;7.15;;;5.88;;
36291;SDS011;22327;51.208;6.418;2023-04-03T01:54:55;8.25;;;5.45;;
36291;SDS011;22327;51.208;6.418;2023-04-03T01:57:20;6.85;;;5.80;;
36291;SDS011;22327;51.208;6.418;2023-04-03T01:59:46;8.93;;;5.75;;
36291;SDS011;22327;51.208;6.418;2023-04-03T02:02:11;7.15;;;6.20;;
36291;SDS011;22327;51.208;6.418;2023-04-03T02:04:39;10.23;;;6.22;;
36291;SDS011;22327;51.208;6.418;2023-04-03T02:07:05;7.90;;;5.53;;
36291;SDS011;22327;51.208;6.418;2023-04-03T02:09:30;9.38;;;7.05;;
36291;SDS011;22327;51.208;6.418;2023-04-03T02:11:56;8.73;;;7.10;;
36291;SDS011;22327;51.208;6.418;2023-04-03T02:14:21;11.27;;;7.57;;
36291;SDS011;22327;51.208;6.418;2023-04-03T02:16:48;15.32;;;9.50;;
36291;SDS011;22327;51.208;6.418;2023-04-03T02:19:14;16.70;;;11.88;;
36291;SDS011;22327;51.208;6.418;2023-04-03T02:21:40;12.30;;;8.48;;
36291;SDS011;22327;51.208;6.418;2023-04-03T02:24:05;12.25;;;7.85;;
36291;SDS011;22327;51.208;6.418;2023-04-03T02:26:31;9.85;;;7.80;;
36291;SDS011;22327;51.208;6.418;2023-04-03T02:28:56;10.43;;;7.53;;
36291;SDS011;22327;51.208;6.418;2023-04-03T02:31:22;11.30;;;7.40;;
36291;SDS011;22327;51.208;6.418;2023-04-03T02:33:48;9.77;;;7.93;;
36291;SDS011;22327;51.208;6.418;2023-04-03T02:36:15;12.50;;;9.23;;
36291;SDS011;22327;51.208;6.418;2023-04-03T02:38:40;13.25;;;7.95;;
36291;SDS011;22327;51.208;6.418;2023-04-03T02:41:07;14.00;;;8.48;;
36291;SDS011;22327;51.208;6.418;2023-04-03T02:43:34;11.57;;;8.77;;
36291;SDS011;22327;51.208;6.418;2023-04-03T02:46:00;12.70;;;8.68;;
36291;SDS011;22327;51.208;6.418;2023-04-03T02:48:26;12.35;;;8.18;;
36291;SDS011;22327;51.208;6.418;2023-04-03T02:50:52;11.50;;;7.72;;
36291;SDS011;22327;51.208;6.418;2023-04-03T02:53:18;12.02;;;8.07;;
36291;SDS011;22327;51.208;6.418;2023-04-03T02:55:44;12.48;;;8.32;;
36291;SDS011;22327;51.208;6.418;2023-04-03T02:58:10;12.63;;;8.30;;
36291;SDS011;22327;51.208;6.418;2023-04-03T03:00:35;11.65;;;8.13;;
36291;SDS011;22327;51.208;6.418;2023-04-03T03:03:01;9.77;;;7.32;;
36291;SDS011;22327;51.208;6.418;2023-04-03T03:05:27;11.57;;;7.70;;
36291;SDS011;22327;51.208;6.418;2023-04-03T03:07:54;11.40;;;7.80;;
36291;SDS011;22327;51.208;6.418;2023-04-03T03:10:20;10.70;;;7.63;;
36291;SDS011;22327;51.208;6.418;2023-04-03T03:12:46;11.82;;;6.85;;
36291;SDS011;22327;51.208;6.418;2023-04-03T03:15:11;9.38;;;7.15;;
36291;SDS011;22327;51.208;6.418;2023-04-03T03:17:37;9.05;;;7.05;;
36291;SDS011;22327;51.208;6.418;2023-04-03T03:20:03;9.88;;;6.18;;
36291;SDS011;22327;51.208;6.418;2023-04-03T03:22:30;7.70;;;5.93;;
36291;SDS011;22327;51.208;6.418;2023-04-03T03:24:56;8.68;;;6.60;;
36291;SDS011;22327;51.208;6.418;2023-04-03T03:27:21;8.23;;;5.30;;
36291;SDS011;22327;51.208;6.418;2023-04-03T03:29:47;8.32;;;5.68;;
36291;SDS011;22327;51.208;6.418;2023-04-03T03:32:12;9.63;;;5.18;;
36291;SDS011;22327;51.208;6.418;2023-04-03T03:34:38;8.18;;;5.40;;
36291;SDS011;22327;51.208;6.418;2023-04-03T03:37:03;6.40;;;4.68;;
36291;SDS011;22327;51.208;6.418;2023-04-03T03:39:29;7.20;;;4.70;;
36291;SDS011;22327;51.208;6.418;2023-04-03T03:41:55;6.93;;;4.78;;
36291;SDS011;22327;51.208;6.418;2023-04-03T03:44:20;5.78;;;4.22;;
36291;SDS011;22327;51.208;6.418;2023-04-03T03:46:46;8.95;;;4.63;;
36291;SDS011;22327;51.208;6.418;2023-04-03T03:49:12;7.40;;;4.65;;
36291;SDS011;22327;51.208;6.418;2023-04-03T03:51:38;6.72;;;4.10;;
36291;SDS011;22327;51.208;6.418;2023-04-03T03:54:04;7.13;;;3.70;;
36291;SDS011;22327;51.208;6.418;2023-04-03T03:56:30;6.45;;;3.78;;
36291;SDS011;22327;51.208;6.418;2023-04-03T03:58:56;5.57;;;3.70;;
36291;SDS011;22327;51.208;6.418;2023-04-03T04:01:22;5.80;;;3.38;;
36291;SDS011;22327;51.208;6.418;2023-04-03T04:03:49;7.95;;;4.05;;
36291;SDS011;22327;51.208;6.418;2023-04-03T04:06:15;7.68;;;3.38;;
36291;SDS011;22327;51.208;6.418;2023-04-03T04:08:41;4.65;;;3.83;;
36291;SDS011;22327;51.208;6.418;2023-04-03T04:11:07;4.60;;;3.33;;
36291;SDS011;22327;51.208;6.418;2023-04-03T04:13:33;5.60;;;3.33;;
36291;SDS011;22327;51.208;6.418;2023-04-03T04:15:58;5.95;;;3.55;;
36291;SDS011;22327;51.208;6.418;2023-04-03T04:18:24;5.65;;;3.40;;
36291;SDS011;22327;51.208;6.418;2023-04-03T04:20:49;6.82;;;3.75;;
36291;SDS011;22327;51.208;6.418;2023-04-03T04:23:16;11.38;;;4.05;;
36291;SDS011;22327;51.208;6.418;2023-04-03T04:25:44;7.50;;;3.10;;
36291;SDS011;22327;51.208;6.418;2023-04-03T04:28:13;7.63;;;3.50;;
36291;SDS011;22327;51.208;6.418;2023-04-03T04:30:39;4.63;;;3.08;;
36291;SDS011;22327;51.208;6.418;2023-04-03T04:33:04;4.13;;;3.13;;
36291;SDS011;22327;51.208;6.418;2023-04-03T04:35:30;3.63;;;2.97;;
36291;SDS011;22327;51.208;6.418;2023-04-03T04:37:55;4.93;;;3.10;;
36291;SDS011;22327;51.208;6.418;2023-04-03T04:40:21;7.25;;;2.70;;
36291;SDS011;22327;51.208;6.418;2023-04-03T04:42:47;6.25;;;2.47;;
36291;SDS011;22327;51.208;6.418;2023-04-03T04:45:12;5.60;;;2.85;;
36291;SDS011;22327;51.208;6.418;2023-04-03T04:47:39;6.13;;;2.50;;
36291;SDS011;22327;51.208;6.418;2023-04-03T04:50:05;7.20;;;2.88;;
36291;SDS011;22327;51.208;6.418;2023-04-03T04:52:31;5.57;;;3.17;;
36291;SDS011;22327;51.208;6.418;2023-04-03T04:54:57;5.97;;;3.00;;
36291;SDS011;22327;51.208;6.418;2023-04-03T04:57:22;5.18;;;3.25;;
36291;SDS011;22327;51.208;6.418;2023-04-03T04:59:48;5.93;;;2.90;;
36291;SDS011;22327;51.208;6.418;2023-04-03T05:02:13;7.65;;;2.88;;
36291;SDS011;22327;51.208;6.418;2023-04-03T05:04:39;6.20;;;2.67;;
36291;SDS011;22327;51.208;6.418;2023-04-03T05:07:05;4.90;;;2.60;;
36291;SDS011;22327;51.208;6.418;2023-04-03T05:09:30;5.57;;;3.05;;
36291;SDS011;22327;51.208;6.418;2023-04-03T05:11:55;7.97;;;2.78;;
36291;SDS011;22327;51.208;6.418;2023-04-03T05:14:21;4.63;;;2.83;;
36291;SDS011;22327;51.208;6.418;2023-04-03T05:16:47;6.57;;;3.53;;
36291;SDS011;22327;51.208;6.418;2023-04-03T05:19:13;5.50;;;2.63;;
36291;SDS011;22327;51.208;6.418;2023-04-03T05:21:38;6.90;;;2.30;;
36291;SDS011;22327;51.208;6.418;2023-04-03T05:24:04;6.70;;;2.42;;
36291;SDS011;22327;51.208;6.418;2023-04-03T05:26:34;3.38;;;2.40;;
36291;SDS011;22327;51.208;6.418;2023-04-03T05:28:59;3.40;;;2.53;;
36291;SDS011;22327;51.208;6.418;2023-04-03T05:31:25;3.60;;;2.20;;
36291;SDS011;22327;51.208;6.418;2023-04-03T05:33:54;4.75;;;2.20;;
36291;SDS011;22327;51.208;6.418;2023-04-03T05:36:19;8.63;;;2.35;;
36291;SDS011;22327;51.208;6.418;2023-04-03T05:38:45;5.38;;;2.40;;
36291;SDS011;22327;51.208;6.418;2023-04-03T05:41:11;4.25;;;2.47;;
36291;SDS011;22327;51.208;6.418;2023-04-03T05:43:36;4.60;;;2.17;;
36291;SDS011;22327;51.208;6.418;2023-04-03T05:46:03;2.95;;;1.95;;
36291;SDS011;22327;51.208;6.418;2023-04-03T05:48:33;4.13;;;1.80;;
36291;SDS011;22327;51.208;6.418;2023-04-03T05:50:59;5.65;;;1.92;;
36291;SDS011;22327;51.208;6.418;2023-04-03T05:53:25;3.22;;;1.63;;
36291;SDS011;22327;51.208;6.418;2023-04-03T05:55:54;4.60;;;1.85;;
36291;SDS011;22327;51.208;6.418;2023-04-03T05:58:19;6.10;;;2.03;;
36291;SDS011;22327;51.208;6.418;2023-04-03T06:00:45;5.38;;;2.10;;
36291;SDS011;22327;51.208;6.418;2023-04-03T06:03:11;4.18;;;1.58;;
36291;SDS011;22327;51.208;6.418;2023-04-03T06:05:37;2.50;;;1.70;;
36291;SDS011;22327;51.208;6.418;2023-04-03T06:08:02;3.22;;;1.75;;
36291;SDS011;22327;51.208;6.418;2023-04-03T06:10:28;3.05;;;1.95;;
36291;SDS011;22327;51.208;6.418;2023-04-03T06:12:54;4.82;;;1.83;;
36291;SDS011;22327;51.208;6.418;2023-04-03T06:15:19;3.83;;;1.40;;
36291;SDS011;22327;51.208;6.418;2023-04-03T06:17:46;4.18;;;1.33;;
36291;SDS011;22327;51.208;6.418;2023-04-03T06:20:11;4.50;;;1.38;;
36291;SDS011;22327;51.208;6.418;2023-04-03T06:22:37;4.70;;;1.63;;
36291;SDS011;22327;51.208;6.418;2023-04-03T06:25:03;3.30;;;1.50;;
36291;SDS011;22327;51.208;6.418;2023-04-03T06:27:29;5.43;;;1.35;;
36291;SDS011;22327;51.208;6.418;2023-04-03T06:29:55;2.75;;;1.30;;
36291;SDS011;22327;51.208;6.418;2023-04-03T06:32:21;2.45;;;1.52;;
36291;SDS011;22327;51.208;6.418;2023-04-03T06:34:46;2.75;;;1.65;;
36291;SDS011;22327;51.208;6.418;2023-04-03T06:37:14;2.42;;;1.30;;
36291;SDS011;22327;51.208;6.418;2023-04-03T06:39:42;2.75;;;1.27;;
36291;SDS011;22327;51.208;6.418;2023-04-03T06:42:08;2.67;;;1.15;;
36291;SDS011;22327;51.208;6.418;2023-04-03T06:44:33;2.08;;;1.40;;
36291;SDS011;22327;51.208;6.418;2023-04-03T06:46:59;3.55;;;1.38;;
36291;SDS011;22327;51.208;6.418;2023-04-03T06:49:25;3.90;;;1.42;;
36291;SDS011;22327;51.208;6.418;2023-04-03T06:51:51;1.83;;;1.20;;
36291;SDS011;22327;51.208;6.418;2023-04-03T06:54:17;2.70;;;1.15;;
36291;SDS011;22327;51.208;6.418;2023-04-03T06:56:43;3.17;;;1.40;;
36291;SDS011;22327;51.208;6.418;2023-04-03T06:59:09;2.17;;;1.30;;
36291;SDS011;22327;51.208;6.418;2023-04-03T07:01:36;2.30;;;1.05;;
36291;SDS011;22327;51.208;6.418;2023-04-03T07:04:02;2.10;;;1.13;;
36291;SDS011;22327;51.208;6.418;2023-04-03T07:06:27;2.25;;;1.20;;
36291;SDS011;22327;51.208;6.418;2023-04-03T07:08:53;2.05;;;1.30;;
36291;SDS011;22327;51.208;6.418;2023-04-03T07:11:19;14.55;;;1.23;;
36291;SDS011;22327;51.208;6.418;2023-04-03T07:13:45;4.28;;;1.40;;
36291;SDS011;22327;51.208;6.418;2023-04-03T07:16:10;4.35;;;1.77;;
36291;SDS011;22327;51.208;6.418;2023-04-03T07:18:36;3.03;;;1.33;;
36291;SDS011;22327;51.208;6.418;2023-04-03T07:21:02;2.40;;;0.90;;
36291;SDS011;22327;51.208;6.418;2023-04-03T07:23:28;3.83;;;1.30;;
36291;SDS011;22327;51.208;6.418;2023-04-03T07:25:53;1.95;;;1.02;;
36291;SDS011;22327;51.208;6.418;2023-04-03T07:28:20;3.38;;;1.27;;
36291;SDS011;22327;51.208;6.418;2023-04-03T07:30:58;3.45;;;1.15;;
36291;SDS011;22327;51.208;6.418;2023-04-03T07:33:26;4.18;;;1.30;;
36291;SDS011;22327;51.208;6.418;2023-04-03T07:35:52;3.95;;;1.45;;
36291;SDS011;22327;51.208;6.418;2023-04-03T07:38:17;2.88;;;0.95;;
36291;SDS011;22327;51.208;6.418;2023-04-03T07:40:47;3.78;;;1.20;;
36291;SDS011;22327;51.208;6.418;2023-04-03T07:43:14;1.92;;;1.15;;
36291;SDS011;22327;51.208;6.418;2023-04-03T07:45:40;2.85;;;1.83;;
36291;SDS011;22327;51.208;6.418;2023-04-03T07:48:06;2.90;;;1.20;;
36291;SDS011;22327;51.208;6.418;2023-04-03T07:50:32;2.58;;;1.10;;
36291;SDS011;22327;51.208;6.418;2023-04-03T07:52:57;2.55;;;1.30;;
36291;SDS011;22327;51.208;6.418;2023-04-03T07:55:23;2.63;;;0.90;;
36291;SDS011;22327;51.208;6.418;2023-04-03T07:57:50;2.92;;;1.20;;
36291;SDS011;22327;51.208;6.418;2023-04-03T08:00:15;2.30;;;1.40;;
36291;SDS011;22327;51.208;6.418;2023-04-03T08:02:42;3.25;;;1.30;;
36291;SDS011;22327;51.208;6.418;2023-04-03T08:05:09;2.10;;;0.95;;
36291;SDS011;22327;51.208;6.418;2023-04-03T08:07:36;3.47;;;1.13;;
36291;SDS011;22327;51.208;6.418;2023-04-03T08:10:02;3.72;;;1.20;;
36291;SDS011;22327;51.208;6.418;2023-04-03T08:12:28;2.20;;;0.98;;
36291;SDS011;22327;51.208;6.418;2023-04-03T08:14:55;2.65;;;1.20;;
36291;SDS011;22327;51.208;6.418;2023-04-03T08:17:20;3.03;;;0.98;;
36291;SDS011;22327;51.208;6.418;2023-04-03T08:19:46;3.15;;;1.00;;
36291;SDS011;22327;51.208;6.418;2023-04-03T08:22:12;4.07;;;0.95;;
36291;SDS011;22327;51.208;6.418;2023-04-03T08:24:37;3.20;;;1.25;;
36291;SDS011;22327;51.208;6.418;2023-04-03T08:27:03;1.75;;;0.70;;
36291;SDS011;22327;51.208;6.418;2023-04-03T08:29:29;1.38;;;0.70;;
36291;SDS011;22327;51.208;6.418;2023-04-03T08:31:54;3.42;;;1.10;;
36291;SDS011;22327;51.208;6.418;2023-04-03T08:34:20;2.78;;;1.00;;
36291;SDS011;22327;51.208;6.418;2023-04-03T08:36:46;2.38;;;0.85;;
36291;SDS011;22327;51.208;6.418;2023-04-03T08:39:12;2.78;;;1.00;;
36291;SDS011;22327;51.208;6.418;2023-04-03T08:41:42;2.15;;;0.80;;
36291;SDS011;22327;51.208;6.418;2023-04-03T08:46:52;1.95;;;0.88;;
36291;SDS011;22327;51.208;6.418;2023-04-03T08:49:39;1.83;;;0.80;;
36291;SDS011;22327;51.208;6.418;2023-04-03T08:52:14;2.65;;;0.70;;
36291;SDS011;22327;51.208;6.418;2023-04-03T08:54:50;2.63;;;0.90;;
36291;SDS011;22327;51.208;6.418;2023-04-03T08:58:01;2.63;;;0.80;;
36291;SDS011;22327;51.208;6.418;2023-04-03T09:00:20;1.50;;;0.82;;
36291;SDS011;22327;51.208;6.418;2023-04-03T09:02:49;1.77;;;0.93;;
36291;SDS011;22327;51.208;6.418;2023-04-03T09:05:17;1.48;;;0.70;;
36291;SDS011;22327;51.208;6.418;2023-04-03T09:07:46;3.75;;;0.77;;
36291;SDS011;22327;51.208;6.418;2023-04-03T09:10:15;2.22;;;0.80;;
36291;SDS011;22327;51.208;6.418;2023-04-03T09:12:45;2.72;;;0.93;;
36291;SDS011;22327;51.208;6.418;2023-04-03T09:15:19;1.13;;;0.60;;
36291;SDS011;22327;51.208;6.418;2023-04-03T09:20:34;1.67;;;0.73;;
36291;SDS011;22327;51.208;6.418;2023-04-03T09:23:24;1.05;;;0.50;;
36291;SDS011;22327;51.208;6.418;2023-04-03T09:25:58;1.27;;;0.73;;
36291;SDS011;22327;51.208;6.418;2023-04-03T09:28:29;2.42;;;0.60;;
36291;SDS011;22327;51.208;6.418;2023-04-03T09:31:00;1.15;;;0.60;;
36291;SDS011;22327;51.208;6.418;2023-04-03T09:33:27;3.05;;;0.60;;
36291;SDS011;22327;51.208;6.418;2023-04-03T09:35:55;1.35;;;0.52;;
36291;SDS011;22327;51.208;6.418;2023-04-03T09:38:21;1.70;;;0.60;;
36291;SDS011;22327;51.208;6.418;2023-04-03T09:40:48;1.27;;;0.45;;
36291;SDS011;22327;51.208;6.418;2023-04-03T09:43:27;0.80;;;0.50;;
36291;SDS011;22327;51.208;6.418;2023-04-03T09:45:55;1.83;;;0.85;;
36291;SDS011;22327;51.208;6.418;2023-04-03T09:48:40;0.73;;;0.40;;
36291;SDS011;22327;51.208;6.418;2023-04-03T09:51:16;1.38;;;0.50;;
36291;SDS011;22327;51.208;6.418;2023-04-03T09:53:42;0.80;;;0.50;;
36291;SDS011;22327;51.208;6.418;2023-04-03T09:58:41;1.73;;;0.93;;
36291;SDS011;22327;51.208;6.418;2023-04-03T10:01:23;2.42;;;0.73;;
36291;SDS011;22327;51.208;6.418;2023-04-03T10:06:31;1.85;;;0.70;;
36291;SDS011;22327;51.208;6.418;2023-04-03T10:09:05;1.95;;;0.88;;
36291;SDS011;22327;51.208;6.418;2023-04-03T10:11:49;0.50;;;0.40;;
36291;SDS011;22327;51.208;6.418;2023-04-03T10:17:26;1.00;;;0.50;;
36291;SDS011;22327;51.208;6.418;2023-04-03T10:20:16;1.45;;;0.60;;
36291;SDS011;22327;51.208;6.418;2023-04-03T10:25:55;3.50;;;0.73;;
36291;SDS011;22327;51.208;6.418;2023-04-03T10:29:35;2.72;;;0.70;;
36291;SDS011;22327;51.208;6.418;2023-04-03T10:31:50;2.53;;;0.60;;
36291;SDS011;22327;51.208;6.418;2023-04-03T10:34:31;1.67;;;0.70;;
36291;SDS011;22327;51.208;6.418;2023-04-03T10:39:59;1.80;;;0.73;;
36291;SDS011;22327;51.208;6.418;2023-04-03T10:45:21;0.82;;;0.30;;
36291;SDS011;22327;51.208;6.418;2023-04-03T10:48:02;1.20;;;0.70;;
36291;SDS011;22327;51.208;6.418;2023-04-03T10:55:48;2.17;;;0.60;;
36291;SDS011;22327;51.208;6.418;2023-04-03T10:58:26;2.53;;;1.23;;
36291;SDS011;22327;51.208;6.418;2023-04-03T11:01:00;2.30;;;0.90;;
36291;SDS011;22327;51.208;6.418;2023-04-03T11:03:34;2.80;;;1.00;;
36291;SDS011;22327;51.208;6.418;2023-04-03T11:06:05;1.63;;;1.05;;
36291;SDS011;22327;51.208;6.418;2023-04-03T11:08:37;2.67;;;0.70;;
36291;SDS011;22327;51.208;6.418;2023-04-03T11:11:26;3.92;;;0.80;;
36291;SDS011;22327;51.208;6.418;2023-04-03T11:14:01;2.00;;;0.75;;
36291;SDS011;22327;51.208;6.418;2023-04-03T11:16:29;1.10;;;0.60;;
36291;SDS011;22327;51.208;6.418;2023-04-03T11:21:47;2.72;;;0.80;;
36291;SDS011;22327;51.208;6.418;2023-04-03T11:24:22;3.50;;;0.77;;
36291;SDS011;22327;51.208;6.418;2023-04-03T11:26:51;1.23;;;0.63;;
36291;SDS011;22327;51.208;6.418;2023-04-03T11:29:21;2.65;;;0.90;;
36291;SDS011;22327;51.208;6.418;2023-04-03T11:32:02;2.72;;;0.85;;
36291;SDS011;22327;51.208;6.418;2023-04-03T11:34:51;1.88;;;0.80;;
36291;SDS011;22327;51.208;6.418;2023-04-03T11:42:41;4.55;;;1.17;;
36291;SDS011;22327;51.208;6.418;2023-04-03T11:47:55;2.72;;;0.85;;
36291;SDS011;22327;51.208;6.418;2023-04-03T11:50:40;1.73;;;0.80;;
36291;SDS011;22327;51.208;6.418;2023-04-03T11:55:44;2.13;;;0.60;;
36291;SDS011;22327;51.208;6.418;2023-04-03T11:58:14;1.15;;;0.60;;
36291;SDS011;22327;51.208;6.418;2023-04-03T12:05:53;2.38;;;0.77;;
36291;SDS011;22327;51.208;6.418;2023-04-03T12:16:07;1.02;;;0.52;;
36291;SDS011;22327;51.208;6.418;2023-04-03T12:21:19;2.50;;;0.60;;
36291;SDS011;22327;51.208;6.418;2023-04-03T12:26:36;2.55;;;0.85;;
36291;SDS011;22327;51.208;6.418;2023-04-03T12:35:30;1.63;;;0.65;;
36291;SDS011;22327;51.208;6.418;2023-04-03T12:38:22;1.98;;;0.80;;
36291;SDS011;22327;51.208;6.418;2023-04-03T12:43:48;2.08;;;0.68;;
36291;SDS011;22327;51.208;6.418;2023-04-03T12:46:39;2.90;;;0.60;;
36291;SDS011;22327;51.208;6.418;2023-04-03T12:52:00;1.70;;;0.80;;
36291;SDS011;22327;51.208;6.418;2023-04-03T12:54:32;2.22;;;1.25;;
36291;SDS011;22327;51.208;6.418;2023-04-03T12:57:11;2.67;;;0.50;;
36291;SDS011;22327;51.208;6.418;2023-04-03T12:59:41;0.93;;;0.60;;
36291;SDS011;22327;51.208;6.418;2023-04-03T13:02:15;1.77;;;0.70;;
36291;SDS011;22327;51.208;6.418;2023-04-03T13:04:46;1.02;;;0.60;;
36291;SDS011;22327;51.208;6.418;2023-04-03T13:07:24;1.95;;;0.93;;
36291;SDS011;22327;51.208;6.418;2023-04-03T13:10:24;0.70;;;0.45;;
36291;SDS011;22327;51.208;6.418;2023-04-03T13:12:52;1.65;;;0.43;;
36291;SDS011;22327;51.208;6.418;2023-04-03T13:15:22;1.55;;;0.60;;
36291;SDS011;22327;51.208;6.418;2023-04-03T13:17:53;2.97;;;0.63;;
36291;SDS011;22327;51.208;6.418;2023-04-03T13:25:16;0.95;;;0.50;;
36291;SDS011;22327;51.208;6.418;2023-04-03T13:27:44;1.17;;;0.45;;
36291;SDS011;22327;51.208;6.418;2023-04-03T13:30:20;2.03;;;0.80;;
36291;SDS011;22327;51.208;6.418;2023-04-03T13:32:55;1.35;;;0.60;;
36291;SDS011;22327;51.208;6.418;2023-04-03T13:35:30;1.73;;;0.50;;
36291;SDS011;22327;51.208;6.418;2023-04-03T13:38:00;0.80;;;0.50;;
36291;SDS011;22327;51.208;6.418;2023-04-03T13:40:31;0.88;;;0.60;;
36291;SDS011;22327;51.208;6.418;2023-04-03T13:43:39;3.08;;;0.75;;
36291;SDS011;22327;51.208;6.418;2023-04-03T13:46:02;0.75;;;0.50;;
36291;SDS011;22327;51.208;6.418;2023-04-03T13:48:53;1.00;;;0.52;;
36291;SDS011;22327;51.208;6.418;2023-04-03T13:51:22;1.45;;;0.55;;
36291;SDS011;22327;51.208;6.418;2023-04-03T13:53:54;1.77;;;0.70;;
36291;SDS011;22327;51.208;6.418;2023-04-03T13:58:55;2.47;;;1.30;;
36291;SDS011;22327;51.208;6.418;2023-04-03T14:01:24;1.65;;;0.70;;
36291;SDS011;22327;51.208;6.418;2023-04-03T14:06:27;1.42;;;0.50;;
36291;SDS011;22327;51.208;6.418;2023-04-03T14:08:53;1.23;;;0.70;;
36291;SDS011;22327;51.208;6.418;2023-04-03T14:11:21;1.42;;;0.77;;
36291;SDS011;22327;51.208;6.418;2023-04-03T14:13:49;0.90;;;0.50;;
36291;SDS011;22327;51.208;6.418;2023-04-03T14:16:16;1.98;;;0.68;;
36291;SDS011;22327;51.208;6.418;2023-04-03T14:18:45;5.38;;;0.80;;
36291;SDS011;22327;51.208;6.418;2023-04-03T14:21:13;1.17;;;0.60;;
36291;SDS011;22327;51.208;6.418;2023-04-03T14:23:40;2.80;;;0.60;;
36291;SDS011;22327;51.208;6.418;2023-04-03T14:26:10;1.23;;;0.52;;
36291;SDS011;22327;51.208;6.418;2023-04-03T14:28:41;2.45;;;0.73;;
36291;SDS011;22327;51.208;6.418;2023-04-03T14:31:08;1.85;;;0.90;;
36291;SDS011;22327;51.208;6.418;2023-04-03T14:33:36;3.47;;;0.75;;
36291;SDS011;22327;51.208;6.418;2023-04-03T14:36:11;2.03;;;1.08;;
36291;SDS011;22327;51.208;6.418;2023-04-03T14:38:37;1.52;;;0.50;;
36291;SDS011;22327;51.208;6.418;2023-04-03T14:41:02;1.80;;;0.95;;
36291;SDS011;22327;51.208;6.418;2023-04-03T14:43:28;2.03;;;0.60;;
36291;SDS011;22327;51.208;6.418;2023-04-03T14:45:53;2.42;;;0.75;;
36291;SDS011;22327;51.208;6.418;2023-04-03T14:48:21;4.70;;;0.85;;
36291;SDS011;22327;51.208;6.418;2023-04-03T14:50:49;2.97;;;0.70;;
36291;SDS011;22327;51.208;6.418;2023-04-03T14:53:16;1.58;;;0.60;;
36291;SDS011;22327;51.208;6.418;2023-04-03T14:55:46;1.73;;;1.02;;
36291;SDS011;22327;51.208;6.418;2023-04-03T14:58:12;2.40;;;0.65;;
36291;SDS011;22327;51.208;6.418;2023-04-03T15:00:39;4.00;;;1.27;;
36291;SDS011;22327;51.208;6.418;2023-04-03T15:03:05;3.55;;;1.35;;
36291;SDS011;22327;51.208;6.418;2023-04-03T15:05:31;1.30;;;0.55;;
36291;SDS011;22327;51.208;6.418;2023-04-03T15:07:57;2.47;;;0.68;;
36291;SDS011;22327;51.208;6.418;2023-04-03T15:10:26;0.80;;;0.50;;
36291;SDS011;22327;51.208;6.418;2023-04-03T15:12:53;0.30;;;0.30;;
36291;SDS011;22327;51.208;6.418;2023-04-03T15:15:20;0.90;;;0.60;;
36291;SDS011;22327;51.208;6.418;2023-04-03T15:17:47;4.13;;;2.00;;
36291;SDS011;22327;51.208;6.418;2023-04-03T15:20:19;1.65;;;0.60;;
36291;SDS011;22327;51.208;6.418;2023-04-03T15:22:46;1.85;;;0.60;;
36291;SDS011;22327;51.208;6.418;2023-04-03T15:25:12;0.80;;;0.40;;
36291;SDS011;22327;51.208;6.418;2023-04-03T15:27:38;1.73;;;0.60;;
36291;SDS011;22327;51.208;6.418;2023-04-03T15:30:05;1.48;;;0.63;;
36291;SDS011;22327;51.208;6.418;2023-04-03T15:32:32;2.30;;;0.60;;
36291;SDS011;22327;51.208;6.418;2023-04-03T15:34:59;1.17;;;0.55;;
36291;SDS011;22327;51.208;6.418;2023-04-03T15:37:24;1.85;;;0.73;;
36291;SDS011;22327;51.208;6.418;2023-04-03T15:39:50;4.35;;;0.73;;
36291;SDS011;22327;51.208;6.418;2023-04-03T15:42:16;1.23;;;0.60;;
36291;SDS011;22327;51.208;6.418;2023-04-03T15:44:41;2.53;;;0.60;;
36291;SDS011;22327;51.208;6.418;2023-04-03T15:47:07;1.13;;;0.55;;
36291;SDS011;22327;51.208;6.418;2023-04-03T15:49:33;1.33;;;0.50;;
36291;SDS011;22327;51.208;6.418;2023-04-03T15:51:59;2.15;;;0.93;;
36291;SDS011;22327;51.208;6.418;2023-04-03T15:54:25;1.67;;;0.60;;
36291;SDS011;22327;51.208;6.418;2023-04-03T15:56:51;1.23;;;0.70;;
36291;SDS011;22327;51.208;6.418;2023-04-03T15:59:17;4.93;;;0.90;;
36291;SDS011;22327;51.208;6.418;2023-04-03T16:01:43;1.40;;;0.60;;
36291;SDS011;22327;51.208;6.418;2023-04-03T16:04:09;2.40;;;0.70;;
36291;SDS011;22327;51.208;6.418;2023-04-03T16:06:35;1.95;;;0.60;;
36291;SDS011;22327;51.208;6.418;2023-04-03T16:09:02;3.03;;;0.82;;
36291;SDS011;22327;51.208;6.418;2023-04-03T16:11:29;3.30;;;0.77;;
36291;SDS011;22327;51.208;6.418;2023-04-03T16:13:55;2.15;;;0.73;;
36291;SDS011;22327;51.208;6.418;2023-04-03T16:16:21;2.33;;;0.60;;
36291;SDS011;22327;51.208;6.418;2023-04-03T16:18:48;1.08;;;0.50;;
36291;SDS011;22327;51.208;6.418;2023-04-03T16:21:14;2.97;;;0.90;;
36291;SDS011;22327;51.208;6.418;2023-04-03T16:23:41;1.92;;;0.85;;
36291;SDS011;22327;51.208;6.418;2023-04-03T16:26:08;2.92;;;1.02;;
36291;SDS011;22327;51.208;6.418;2023-04-03T16:28:33;0.85;;;0.50;;